Time;durP1;ratioP1;P1;durP2;ratioP2;P2;SDS_P1;SDS_P2;PMS_P1;PMS_P2;Temp;Humidity;BMP_temperature;BMP_pressure;BME280_temperature;BME280_humidity;BME280_pressure;Samples;Min_cycle;Max_cycle;Signal;HPM_P1;HPM_P2
2022/10/24 00:01:51;;;;;;;19.05;6.18;;;;;;;;;;5011077;28;20108;-69
2022/10/24 00:04:17;;;;;;;19.83;6.05;;;;;;;;;;5013032;28;20062;-70
2022/10/24 00:06:42;;;;;;;20.27;6.60;;;;;;;;;;5006815;28;20097;-69
2022/10/24 00:09:09;;;;;;;20.60;6.78;;;;;;;;;;4982997;28;20057;-69
2022/10/24 00:11:35;;;;;;;16.73;6.20;;;;;;;;;;5010148;28;20053;-68
2022/10/24 00:14:01;;;;;;;15.18;5.93;;;;;;;;;;5008546;28;20476;-69
2022/10/24 00:16:27;;;;;;;19.20;5.97;;;;;;;;;;5009907;28;20052;-69
2022/10/24 00:18:53;;;;;;;13.25;5.78;;;;;;;;;;5006702;28;20053;-69
2022/10/24 00:21:19;;;;;;;20.13;6.50;;;;;;;;;;5002707;28;20488;-69
2022/10/24 00:23:45;;;;;;;19.02;6.60;;;;;;;;;;5008787;28;20060;-69
2022/10/24 00:26:12;;;;;;;19.13;5.88;;;;;;;;;;5012042;28;21229;-69
2022/10/24 00:28:39;;;;;;;14.32;5.65;;;;;;;;;;5009785;28;20045;-69
2022/10/24 00:31:07;;;;;;;19.45;6.25;;;;;;;;;;5011331;28;20606;-70
2022/10/24 00:33:33;;;;;;;12.45;5.43;;;;;;;;;;5004029;28;20046;-70
2022/10/24 00:35:59;;;;;;;17.20;5.95;;;;;;;;;;5010586;28;20129;-68
2022/10/24 00:38:26;;;;;;;12.75;5.28;;;;;;;;;;5009238;28;20050;-69
2022/10/24 00:40:51;;;;;;;15.55;5.70;;;;;;;;;;5007384;28;20507;-69
2022/10/24 00:43:24;;;;;;;18.58;5.70;;;;;;;;;;5009837;28;20450;-68
2022/10/24 00:45:53;;;;;;;18.83;5.30;;;;;;;;;;5010459;28;20054;-69
2022/10/24 00:48:39;;;;;;;18.00;4.68;;;;;;;;;;4988857;28;20053;-69
2022/10/24 00:51:10;;;;;;;15.57;4.53;;;;;;;;;;5005741;28;20054;-69
2022/10/24 00:53:43;;;;;;;11.68;4.13;;;;;;;;;;5008417;28;20381;-68
2022/10/24 00:56:11;;;;;;;8.75;3.88;;;;;;;;;;5005039;28;20383;-69
2022/10/24 00:58:38;;;;;;;12.27;3.45;;;;;;;;;;5006534;28;20125;-67
2022/10/24 01:01:04;;;;;;;11.02;3.85;;;;;;;;;;5004597;28;20054;-69
2022/10/24 01:03:31;;;;;;;11.90;4.22;;;;;;;;;;4999661;28;20111;-68
2022/10/24 01:05:57;;;;;;;12.38;3.42;;;;;;;;;;5009694;28;20056;-68
2022/10/24 01:08:50;;;;;;;13.40;3.92;;;;;;;;;;4990824;28;20531;-71
2022/10/24 01:11:51;;;;;;;13.80;3.58;;;;;;;;;;5009320;28;20092;-69
2022/10/24 01:14:28;;;;;;;10.27;3.60;;;;;;;;;;5008151;28;20311;-71
2022/10/24 01:17:11;;;;;;;13.18;4.00;;;;;;;;;;5006697;28;20046;-71
2022/10/24 01:19:37;;;;;;;13.07;3.60;;;;;;;;;;5006659;28;20042;-68
2022/10/24 01:22:11;;;;;;;12.38;3.92;;;;;;;;;;5008672;28;20045;-73
2022/10/24 01:24:59;;;;;;;8.90;2.83;;;;;;;;;;5008540;28;20056;-70
2022/10/24 01:27:33;;;;;;;6.97;2.97;;;;;;;;;;5007429;28;20116;-71
2022/10/24 01:30:02;;;;;;;12.25;3.50;;;;;;;;;;5010212;28;20065;-69
2022/10/24 01:32:53;;;;;;;9.00;3.88;;;;;;;;;;5007548;28;20061;-69
2022/10/24 01:35:39;;;;;;;15.32;3.33;;;;;;;;;;5005026;28;20089;-69
2022/10/24 01:38:22;;;;;;;7.55;3.03;;;;;;;;;;5004826;28;20499;-70
2022/10/24 01:40:51;;;;;;;8.55;3.17;;;;;;;;;;5011695;28;20679;-70
2022/10/24 01:43:23;;;;;;;8.95;3.03;;;;;;;;;;4995083;28;20041;-69
2022/10/24 01:45:58;;;;;;;7.47;2.72;;;;;;;;;;5010560;28;20128;-70
2022/10/24 01:48:25;;;;;;;5.25;2.78;;;;;;;;;;5005207;28;20484;-70
2022/10/24 01:50:53;;;;;;;7.70;2.63;;;;;;;;;;5008848;28;20539;-69
2022/10/24 01:53:22;;;;;;;10.65;2.95;;;;;;;;;;4990395;28;20143;-69
2022/10/24 01:55:49;;;;;;;8.45;2.83;;;;;;;;;;5009563;28;20049;-71
2022/10/24 01:58:15;;;;;;;5.40;2.00;;;;;;;;;;5010445;28;20048;-68
2022/10/24 02:00:44;;;;;;;8.80;2.08;;;;;;;;;;5009240;28;20046;-69
2022/10/24 02:03:25;;;;;;;7.35;1.88;;;;;;;;;;5008453;28;20061;-69
2022/10/24 02:05:56;;;;;;;7.72;1.88;;;;;;;;;;5006695;28;20049;-69
2022/10/24 02:08:38;;;;;;;12.05;2.65;;;;;;;;;;5006632;28;20049;-68
2022/10/24 02:11:06;;;;;;;5.20;2.08;;;;;;;;;;5010280;28;20046;-70
2022/10/24 02:13:34;;;;;;;17.80;2.35;;;;;;;;;;5011893;28;20038;-68
2022/10/24 02:16:02;;;;;;;8.43;2.47;;;;;;;;;;5007734;28;20046;-69
2022/10/24 02:18:29;;;;;;;5.35;1.65;;;;;;;;;;5009060;28;20049;-68
2022/10/24 02:21:03;;;;;;;5.97;1.70;;;;;;;;;;5004256;28;20517;-70
2022/10/24 02:23:42;;;;;;;4.75;1.75;;;;;;;;;;5006222;28;20042;-69
2022/10/24 02:26:14;;;;;;;9.60;2.15;;;;;;;;;;5008726;28;20125;-70
2022/10/24 02:28:44;;;;;;;7.07;1.70;;;;;;;;;;5008831;28;20099;-69
2022/10/24 02:31:21;;;;;;;3.90;1.58;;;;;;;;;;5009184;28;20053;-70
2022/10/24 02:33:48;;;;;;;6.88;1.63;;;;;;;;;;5006750;28;20046;-70
2022/10/24 02:36:22;;;;;;;5.15;1.52;;;;;;;;;;4997372;28;20123;-69
2022/10/24 02:38:51;;;;;;;7.90;1.67;;;;;;;;;;5011464;28;20555;-69
2022/10/24 02:41:25;;;;;;;4.25;1.50;;;;;;;;;;5004706;28;20408;-71
2022/10/24 02:43:53;;;;;;;7.38;2.28;;;;;;;;;;5011809;28;20622;-69
2022/10/24 02:46:20;;;;;;;6.40;1.70;;;;;;;;;;5013191;28;20049;-68
2022/10/24 02:48:57;;;;;;;5.20;2.25;;;;;;;;;;5013998;28;20451;-69
2022/10/24 02:51:26;;;;;;;9.35;2.00;;;;;;;;;;5006362;28;20135;-71
2022/10/24 02:53:52;;;;;;;9.43;2.10;;;;;;;;;;5009395;28;20057;-74
2022/10/24 02:56:18;;;;;;;6.18;1.77;;;;;;;;;;5011873;28;20129;-68
2022/10/24 02:58:44;;;;;;;6.10;1.92;;;;;;;;;;5008769;28;20120;-70
2022/10/24 03:01:10;;;;;;;5.47;2.08;;;;;;;;;;5011584;28;20083;-69
2022/10/24 03:03:36;;;;;;;8.30;2.40;;;;;;;;;;5011356;28;20562;-68
2022/10/24 03:06:02;;;;;;;8.65;1.75;;;;;;;;;;5011673;28;20125;-68
2022/10/24 03:08:28;;;;;;;7.38;2.28;;;;;;;;;;5012085;28;20042;-70
2022/10/24 03:10:55;;;;;;;8.15;2.28;;;;;;;;;;5006611;28;20105;-69
2022/10/24 03:13:21;;;;;;;6.40;2.65;;;;;;;;;;5007723;28;20050;-69
2022/10/24 03:15:47;;;;;;;6.03;2.03;;;;;;;;;;5008644;28;20065;-69
2022/10/24 03:18:13;;;;;;;8.98;2.55;;;;;;;;;;5012721;28;20072;-69
2022/10/24 03:20:39;;;;;;;10.85;2.20;;;;;;;;;;5010231;28;20407;-70
2022/10/24 03:23:04;;;;;;;7.88;2.55;;;;;;;;;;5012445;28;20084;-70
2022/10/24 03:25:30;;;;;;;11.15;2.97;;;;;;;;;;5013969;28;20053;-69
2022/10/24 03:27:56;;;;;;;14.43;2.80;;;;;;;;;;5011863;28;20045;-69
2022/10/24 03:30:22;;;;;;;7.80;2.55;;;;;;;;;;5005102;28;20053;-71
2022/10/24 03:32:48;;;;;;;12.15;3.03;;;;;;;;;;5006728;28;20056;-70
2022/10/24 03:35:15;;;;;;;6.88;3.00;;;;;;;;;;5006214;28;20046;-69
2022/10/24 03:37:42;;;;;;;9.70;2.72;;;;;;;;;;5006543;28;20530;-68
2022/10/24 03:40:10;;;;;;;11.10;3.90;;;;;;;;;;5009763;28;20057;-69
2022/10/24 03:42:36;;;;;;;8.82;2.90;;;;;;;;;;5011315;28;20042;-69
2022/10/24 03:45:03;;;;;;;9.77;2.63;;;;;;;;;;5012374;28;20539;-68
2022/10/24 03:47:28;;;;;;;9.38;2.97;;;;;;;;;;5009309;28;20050;-69
2022/10/24 03:49:54;;;;;;;9.98;3.05;;;;;;;;;;5012025;28;20054;-72
2022/10/24 03:52:21;;;;;;;11.43;3.10;;;;;;;;;;5012799;28;20054;-70
2022/10/24 03:54:47;;;;;;;13.38;3.33;;;;;;;;;;5011133;28;20079;-69
2022/10/24 03:57:13;;;;;;;14.13;2.85;;;;;;;;;;5016232;28;20487;-69
2022/10/24 03:59:39;;;;;;;15.15;2.70;;;;;;;;;;5007283;28;20054;-70
2022/10/24 04:02:05;;;;;;;11.63;3.22;;;;;;;;;;5004040;28;20153;-70
2022/10/24 04:04:31;;;;;;;7.78;2.75;;;;;;;;;;5002385;28;20131;-68
2022/10/24 04:06:59;;;;;;;10.48;2.70;;;;;;;;;;5011469;28;20121;-69
2022/10/24 04:09:26;;;;;;;17.65;3.25;;;;;;;;;;5007429;28;20427;-69
2022/10/24 04:11:52;;;;;;;8.07;3.30;;;;;;;;;;4991425;28;20077;-69
2022/10/24 04:14:19;;;;;;;6.72;2.83;;;;;;;;;;4986398;28;20044;-69
2022/10/24 04:16:45;;;;;;;12.82;2.85;;;;;;;;;;5000991;28;20054;-68
2022/10/24 04:19:11;;;;;;;8.82;2.63;;;;;;;;;;5000301;28;20103;-68
2022/10/24 04:21:37;;;;;;;11.10;2.95;;;;;;;;;;5003597;28;20079;-71
2022/10/24 04:24:03;;;;;;;9.50;2.40;;;;;;;;;;4993298;28;20050;-69
2022/10/24 04:26:30;;;;;;;10.35;2.55;;;;;;;;;;4996458;28;21096;-71
2022/10/24 04:28:56;;;;;;;10.32;2.58;;;;;;;;;;4999311;28;20054;-71
2022/10/24 04:31:22;;;;;;;9.55;2.55;;;;;;;;;;5004602;28;20128;-69
2022/10/24 04:33:48;;;;;;;10.25;2.50;;;;;;;;;;5008765;28;20058;-69
2022/10/24 04:36:14;;;;;;;7.55;2.45;;;;;;;;;;5008897;28;20483;-71
2022/10/24 04:38:40;;;;;;;8.13;2.40;;;;;;;;;;5006287;28;20459;-69
2022/10/24 04:41:06;;;;;;;8.88;2.60;;;;;;;;;;5004210;28;20046;-69
2022/10/24 04:43:32;;;;;;;6.20;2.38;;;;;;;;;;5008607;28;20120;-70
2022/10/24 04:45:58;;;;;;;8.48;3.03;;;;;;;;;;5008895;28;20125;-70
2022/10/24 04:48:24;;;;;;;8.27;2.38;;;;;;;;;;5016045;28;20339;-71
2022/10/24 04:50:50;;;;;;;12.23;2.40;;;;;;;;;;5009805;28;20801;-70
2022/10/24 04:53:16;;;;;;;9.80;2.72;;;;;;;;;;5008536;28;20038;-70
2022/10/24 04:55:43;;;;;;;11.75;2.85;;;;;;;;;;5003901;28;20042;-69
2022/10/24 04:58:10;;;;;;;9.18;2.65;;;;;;;;;;5008062;28;20488;-69
2022/10/24 05:00:36;;;;;;;15.73;3.33;;;;;;;;;;5006292;28;20077;-71
2022/10/24 05:03:02;;;;;;;9.55;2.85;;;;;;;;;;5009978;28;20050;-69
2022/10/24 05:05:28;;;;;;;9.40;3.00;;;;;;;;;;5010741;28;20509;-70
2022/10/24 05:07:54;;;;;;;8.57;2.75;;;;;;;;;;5012926;28;20046;-71
2022/10/24 05:10:20;;;;;;;8.38;3.28;;;;;;;;;;5006590;28;20061;-71
2022/10/24 05:12:46;;;;;;;10.40;2.85;;;;;;;;;;5005227;28;20129;-72
2022/10/24 05:15:13;;;;;;;7.63;2.80;;;;;;;;;;5008145;28;20118;-71
2022/10/24 05:17:39;;;;;;;9.05;2.65;;;;;;;;;;5008958;28;20128;-72
2022/10/24 05:20:06;;;;;;;10.93;2.85;;;;;;;;;;5011615;28;20046;-69
2022/10/24 05:22:32;;;;;;;11.65;2.63;;;;;;;;;;5009862;28;20125;-70
2022/10/24 05:24:58;;;;;;;8.15;2.17;;;;;;;;;;5011671;28;20052;-70
2022/10/24 05:27:24;;;;;;;10.13;2.60;;;;;;;;;;5011335;28;20053;-68
2022/10/24 05:29:51;;;;;;;11.20;2.65;;;;;;;;;;5004212;28;20169;-71
2022/10/24 05:32:19;;;;;;;11.02;2.15;;;;;;;;;;4973238;28;20523;-69
2022/10/24 05:34:45;;;;;;;7.60;2.17;;;;;;;;;;5008045;28;20057;-68
2022/10/24 05:37:11;;;;;;;7.75;2.20;;;;;;;;;;5005254;28;20037;-69
2022/10/24 05:39:37;;;;;;;14.00;2.40;;;;;;;;;;5010198;28;20045;-69
2022/10/24 05:42:03;;;;;;;7.43;2.50;;;;;;;;;;4999022;28;20049;-70
2022/10/24 05:44:29;;;;;;;11.55;2.80;;;;;;;;;;5007969;28;20049;-70
2022/10/24 05:46:55;;;;;;;13.38;2.50;;;;;;;;;;5002884;28;20884;-69
2022/10/24 05:49:21;;;;;;;7.38;2.17;;;;;;;;;;5004649;28;20046;-70
2022/10/24 05:51:47;;;;;;;13.45;2.60;;;;;;;;;;5007050;28;20128;-70
2022/10/24 05:54:13;;;;;;;20.50;2.80;;;;;;;;;;5007921;28;20057;-72
2022/10/24 05:56:39;;;;;;;8.18;2.25;;;;;;;;;;5003763;28;20140;-71
2022/10/24 05:59:05;;;;;;;15.68;2.97;;;;;;;;;;5004289;28;20121;-71
2022/10/24 06:01:32;;;;;;;14.02;2.20;;;;;;;;;;5007312;28;20056;-71
2022/10/24 06:03:58;;;;;;;7.65;2.60;;;;;;;;;;5006658;28;20124;-71
2022/10/24 06:06:24;;;;;;;15.18;2.47;;;;;;;;;;5009007;28;20074;-73
2022/10/24 06:08:50;;;;;;;11.80;2.40;;;;;;;;;;5010331;28;20088;-72
2022/10/24 06:11:17;;;;;;;10.35;3.20;;;;;;;;;;5004257;28;20064;-70
2022/10/24 06:13:43;;;;;;;13.75;2.72;;;;;;;;;;5002647;28;20070;-70
2022/10/24 06:16:10;;;;;;;10.68;2.47;;;;;;;;;;5005192;28;20054;-70
2022/10/24 06:18:38;;;;;;;6.70;2.40;;;;;;;;;;5007325;28;20045;-72
2022/10/24 06:21:07;;;;;;;10.27;2.63;;;;;;;;;;5002140;28;20096;-71
2022/10/24 06:23:33;;;;;;;18.60;5.72;;;;;;;;;;4993092;28;20388;-69
2022/10/24 06:25:59;;;;;;;46.20;20.70;;;;;;;;;;5004896;28;20401;-71
2022/10/24 06:28:25;;;;;;;81.05;41.70;;;;;;;;;;5006065;28;20046;-67
2022/10/24 06:30:55;;;;;;;84.82;39.42;;;;;;;;;;5010046;28;20058;-69
2022/10/24 06:33:21;;;;;;;81.05;35.28;;;;;;;;;;5005804;28;20046;-70
2022/10/24 06:35:47;;;;;;;60.22;28.13;;;;;;;;;;5007432;28;20116;-69
2022/10/24 06:38:13;;;;;;;55.10;26.45;;;;;;;;;;5004585;28;20476;-69
2022/10/24 06:40:41;;;;;;;51.08;24.02;;;;;;;;;;4997406;28;20049;-72
2022/10/24 06:43:07;;;;;;;39.38;18.40;;;;;;;;;;5000655;28;20520;-70
2022/10/24 06:45:34;;;;;;;42.45;18.27;;;;;;;;;;5003314;28;20046;-72
2022/10/24 06:48:00;;;;;;;47.70;18.48;;;;;;;;;;4998595;28;20042;-75
2022/10/24 06:50:26;;;;;;;40.17;18.35;;;;;;;;;;5008528;28;20084;-71
2022/10/24 06:52:52;;;;;;;35.50;16.75;;;;;;;;;;5009068;28;20049;-68
2022/10/24 06:55:18;;;;;;;37.92;15.90;;;;;;;;;;5000497;28;20050;-70
2022/10/24 06:57:44;;;;;;;41.15;15.40;;;;;;;;;;4989428;28;20049;-73
2022/10/24 07:00:13;;;;;;;35.50;15.00;;;;;;;;;;5005060;28;20069;-71
2022/10/24 07:02:39;;;;;;;31.88;12.82;;;;;;;;;;5002061;28;20073;-71
2022/10/24 07:05:09;;;;;;;26.52;11.48;;;;;;;;;;5010260;28;20048;-71
2022/10/24 07:07:35;;;;;;;31.67;10.77;;;;;;;;;;4990405;28;20097;-69
2022/10/24 07:10:02;;;;;;;25.45;9.80;;;;;;;;;;5005202;28;20137;-71
2022/10/24 07:12:28;;;;;;;24.13;10.63;;;;;;;;;;5002215;28;20414;-69
2022/10/24 07:14:54;;;;;;;24.50;10.18;;;;;;;;;;5008227;28;20098;-69
2022/10/24 07:17:20;;;;;;;26.48;11.23;;;;;;;;;;5005798;28;20120;-71
2022/10/24 07:19:53;;;;;;;20.85;9.73;;;;;;;;;;5003961;28;20181;-68
2022/10/24 07:22:19;;;;;;;28.42;9.88;;;;;;;;;;5007209;28;20038;-69
2022/10/24 07:24:50;;;;;;;24.75;9.30;;;;;;;;;;5004857;28;20512;-68
2022/10/24 07:27:16;;;;;;;23.08;8.95;;;;;;;;;;4996168;28;20055;-69
2022/10/24 07:29:42;;;;;;;20.88;8.82;;;;;;;;;;4997562;28;20109;-69
2022/10/24 07:32:09;;;;;;;26.02;9.38;;;;;;;;;;5005104;28;20363;-70
2022/10/24 07:34:35;;;;;;;24.92;9.57;;;;;;;;;;5007225;28;20663;-68
2022/10/24 07:37:03;;;;;;;23.40;10.13;;;;;;;;;;5020661;28;20050;-72
2022/10/24 07:39:29;;;;;;;21.83;9.90;;;;;;;;;;5010189;28;20054;-70
2022/10/24 07:41:55;;;;;;;20.75;8.43;;;;;;;;;;5003423;28;20417;-72
2022/10/24 07:44:21;;;;;;;20.30;8.80;;;;;;;;;;5005965;28;20038;-70
2022/10/24 07:46:46;;;;;;;22.50;7.63;;;;;;;;;;5003633;28;20112;-69
2022/10/24 07:49:12;;;;;;;15.38;6.50;;;;;;;;;;5006140;28;20093;-67
2022/10/24 07:51:41;;;;;;;20.85;5.85;;;;;;;;;;5008578;28;20061;-69
2022/10/24 07:54:07;;;;;;;14.32;5.55;;;;;;;;;;5006558;28;20064;-71
2022/10/24 07:56:33;;;;;;;12.27;4.45;;;;;;;;;;5012095;28;20042;-67
2022/10/24 07:59:00;;;;;;;14.40;4.60;;;;;;;;;;5005579;28;20041;-68
2022/10/24 08:01:27;;;;;;;13.27;4.47;;;;;;;;;;5006171;28;20077;-68
2022/10/24 08:03:54;;;;;;;15.52;4.75;;;;;;;;;;5006771;28;20056;-68
2022/10/24 08:06:23;;;;;;;12.07;3.65;;;;;;;;;;5003621;28;20034;-67
2022/10/24 08:08:50;;;;;;;15.52;3.80;;;;;;;;;;5007973;28;20133;-72
2022/10/24 08:11:20;;;;;;;10.68;3.20;;;;;;;;;;5010741;28;20053;-69
2022/10/24 08:13:47;;;;;;;11.60;3.45;;;;;;;;;;5007608;28;20648;-70
2022/10/24 08:16:15;;;;;;;15.07;3.08;;;;;;;;;;5011565;28;20145;-68
2022/10/24 08:18:42;;;;;;;9.63;2.70;;;;;;;;;;5005144;28;20492;-67
2022/10/24 08:21:11;;;;;;;12.45;2.70;;;;;;;;;;5008266;28;20052;-67
2022/10/24 08:23:39;;;;;;;11.40;3.20;;;;;;;;;;5008321;28;20053;-68
2022/10/24 08:26:11;;;;;;;10.48;3.67;;;;;;;;;;4998705;28;20045;-68
2022/10/24 08:28:37;;;;;;;15.07;3.50;;;;;;;;;;5010669;28;20052;-69
2022/10/24 08:31:09;;;;;;;9.32;3.20;;;;;;;;;;5004559;28;20054;-70
2022/10/24 08:33:35;;;;;;;11.13;3.17;;;;;;;;;;5002085;28;20519;-69
2022/10/24 08:36:05;;;;;;;11.23;3.28;;;;;;;;;;4999181;28;20141;-65
2022/10/24 08:38:31;;;;;;;14.05;3.08;;;;;;;;;;5009226;28;20503;-69
2022/10/24 08:40:57;;;;;;;17.60;3.63;;;;;;;;;;5007537;28;20045;-66
2022/10/24 08:43:24;;;;;;;17.05;3.70;;;;;;;;;;5006803;28;20065;-69
2022/10/24 08:46:22;;;;;;;15.57;3.22;;;;;;;;;;4996444;28;20038;-68
2022/10/24 08:48:54;;;;;;;15.77;3.22;;;;;;;;;;5012568;28;20073;-66
2022/10/24 08:51:49;;;;;;;15.73;3.50;;;;;;;;;;5003193;28;20522;-66
2022/10/24 08:54:22;;;;;;;15.93;3.30;;;;;;;;;;4992329;28;20057;-67
2022/10/24 08:56:48;;;;;;;14.48;3.30;;;;;;;;;;5010056;28;20050;-67
2022/10/24 08:59:14;;;;;;;14.60;3.75;;;;;;;;;;5007375;28;20081;-65
2022/10/24 09:01:51;;;;;;;10.50;2.83;;;;;;;;;;5010543;28;20050;-67
2022/10/24 09:04:21;;;;;;;10.38;3.38;;;;;;;;;;5010200;28;20057;-65
2022/10/24 09:06:50;;;;;;;24.38;3.85;;;;;;;;;;4998457;28;20076;-67
2022/10/24 09:09:30;;;;;;;17.40;3.70;;;;;;;;;;5009579;28;20038;-66
2022/10/24 09:12:02;;;;;;;13.18;3.40;;;;;;;;;;5010205;28;20053;-68
2022/10/24 09:14:35;;;;;;;11.90;2.83;;;;;;;;;;5009789;28;20127;-67
2022/10/24 09:17:22;;;;;;;9.15;3.35;;;;;;;;;;5009378;28;20089;-70
2022/10/24 09:19:58;;;;;;;14.18;3.58;;;;;;;;;;5009197;28;20064;-67
2022/10/24 09:22:27;;;;;;;15.75;3.67;;;;;;;;;;5007613;28;20053;-68
2022/10/24 09:25:15;;;;;;;9.63;3.28;;;;;;;;;;4989237;28;20046;-67
2022/10/24 09:27:42;;;;;;;14.77;3.90;;;;;;;;;;5003245;28;20078;-68
2022/10/24 09:30:17;;;;;;;13.20;3.28;;;;;;;;;;4991004;28;20515;-66
2022/10/24 09:32:43;;;;;;;12.00;3.65;;;;;;;;;;4991749;28;20081;-66
2022/10/24 09:35:25;;;;;;;12.75;3.47;;;;;;;;;;5008660;28;20053;-71
2022/10/24 09:37:50;;;;;;;10.20;2.85;;;;;;;;;;4995495;28;20038;-67
2022/10/24 09:40:19;;;;;;;12.00;2.90;;;;;;;;;;5006854;28;20046;-68
2022/10/24 09:43:00;;;;;;;16.20;3.63;;;;;;;;;;5007134;28;20566;-68
2022/10/24 09:46:02;;;;;;;7.90;3.30;;;;;;;;;;5001386;28;20450;-66
2022/10/24 09:48:46;;;;;;;21.67;3.60;;;;;;;;;;4998645;28;20073;-66
2022/10/24 09:51:46;;;;;;;8.15;2.92;;;;;;;;;;5008224;28;20107;-70
2022/10/24 09:54:18;;;;;;;9.05;3.00;;;;;;;;;;4989634;28;20137;-66
2022/10/24 09:56:56;;;;;;;10.02;3.20;;;;;;;;;;5002516;28;20045;-68
2022/10/24 09:59:44;;;;;;;8.77;3.13;;;;;;;;;;4989915;28;20670;-66
2022/10/24 10:02:13;;;;;;;13.38;2.90;;;;;;;;;;5002161;28;20095;-66
2022/10/24 10:04:40;;;;;;;7.95;2.38;;;;;;;;;;5009715;28;20049;-67
2022/10/24 10:07:31;;;;;;;10.50;2.50;;;;;;;;;;5006961;28;20081;-68
2022/10/24 10:09:59;;;;;;;7.63;2.65;;;;;;;;;;5000284;28;20042;-66
2022/10/24 10:12:36;;;;;;;15.70;2.83;;;;;;;;;;5007852;28;20081;-68
2022/10/24 10:15:23;;;;;;;13.63;3.08;;;;;;;;;;5007524;28;20076;-69
2022/10/24 10:17:53;;;;;;;14.93;3.55;;;;;;;;;;5007691;28;20054;-68
2022/10/24 10:20:29;;;;;;;10.15;3.28;;;;;;;;;;5006261;28;20046;-70
2022/10/24 10:22:55;;;;;;;12.27;3.60;;;;;;;;;;5009328;28;20072;-66
2022/10/24 10:25:30;;;;;;;15.15;3.20;;;;;;;;;;5009377;28;20399;-68
2022/10/24 10:27:57;;;;;;;9.75;2.72;;;;;;;;;;5006445;28;20153;-66
2022/10/24 10:30:24;;;;;;;8.77;2.97;;;;;;;;;;5007758;28;20547;-67
2022/10/24 10:33:05;;;;;;;7.63;2.88;;;;;;;;;;4997306;28;20053;-69
2022/10/24 10:36:03;;;;;;;12.50;2.80;;;;;;;;;;4998745;28;20069;-66
2022/10/24 10:38:50;;;;;;;16.10;2.72;;;;;;;;;;4999825;28;20058;-67
2022/10/24 10:41:31;;;;;;;14.82;3.00;;;;;;;;;;5005361;28;20046;-69
2022/10/24 10:44:19;;;;;;;13.85;2.60;;;;;;;;;;5009596;28;20056;-67
2022/10/24 10:46:53;;;;;;;11.20;2.47;;;;;;;;;;5007027;28;20034;-68
2022/10/24 10:49:40;;;;;;;10.70;2.90;;;;;;;;;;5007968;28;20085;-67
2022/10/24 10:52:30;;;;;;;10.27;3.10;;;;;;;;;;5008282;28;20042;-67
2022/10/24 10:55:05;;;;;;;9.18;2.50;;;;;;;;;;4999361;28;20133;-70
2022/10/24 10:57:41;;;;;;;13.98;2.78;;;;;;;;;;5011797;28;20058;-67
2022/10/24 11:00:11;;;;;;;17.70;2.63;;;;;;;;;;5011176;28;20076;-70
2022/10/24 11:02:46;;;;;;;16.33;3.45;;;;;;;;;;5010549;28;20278;-70
2022/10/24 11:05:43;;;;;;;16.77;3.45;;;;;;;;;;5014671;28;20643;-67
2022/10/24 11:08:24;;;;;;;10.48;3.20;;;;;;;;;;5003410;28;20100;-66
2022/10/24 11:10:56;;;;;;;10.25;3.60;;;;;;;;;;5008854;28;20357;-67
2022/10/24 11:13:30;;;;;;;13.02;3.95;;;;;;;;;;5010214;28;20374;-67
2022/10/24 11:16:00;;;;;;;23.15;3.40;;;;;;;;;;5011216;28;20126;-68
2022/10/24 11:18:32;;;;;;;12.63;3.80;;;;;;;;;;5001610;28;20069;-66
2022/10/24 11:21:09;;;;;;;14.15;4.13;;;;;;;;;;5005030;28;20081;-67
2022/10/24 11:23:39;;;;;;;18.08;4.55;;;;;;;;;;5009251;28;20057;-68
2022/10/24 11:26:25;;;;;;;15.25;3.53;;;;;;;;;;5000757;28;20524;-72
2022/10/24 11:29:14;;;;;;;8.55;3.17;;;;;;;;;;5008508;28;20050;-69
2022/10/24 11:31:46;;;;;;;8.57;3.03;;;;;;;;;;5011488;28;20331;-67
2022/10/24 11:34:24;;;;;;;15.40;3.38;;;;;;;;;;5009412;28;20088;-67
2022/10/24 11:36:55;;;;;;;15.73;2.90;;;;;;;;;;5011007;28;20046;-70
2022/10/24 11:39:26;;;;;;;8.15;2.35;;;;;;;;;;5011671;28;20046;-66
2022/10/24 11:42:02;;;;;;;13.63;2.70;;;;;;;;;;5011254;28;20046;-68
2022/10/24 11:44:52;;;;;;;11.25;2.65;;;;;;;;;;5009049;28;20125;-68
2022/10/24 11:47:24;;;;;;;8.68;3.08;;;;;;;;;;5010420;28;20148;-67
2022/10/24 11:50:24;;;;;;;8.93;2.70;;;;;;;;;;5010711;28;20179;-67
2022/10/24 11:53:18;;;;;;;9.48;2.25;;;;;;;;;;5010397;28;20042;-68
2022/10/24 11:56:13;;;;;;;12.10;2.55;;;;;;;;;;5011219;28;20097;-67
2022/10/24 11:58:51;;;;;;;13.55;2.85;;;;;;;;;;5004397;28;20069;-68
2022/10/24 12:01:51;;;;;;;14.02;2.53;;;;;;;;;;5010209;28;20104;-68
2022/10/24 12:04:29;;;;;;;10.50;2.22;;;;;;;;;;5006008;28;20519;-69
2022/10/24 12:07:13;;;;;;;8.82;2.38;;;;;;;;;;5007082;28;20117;-70
2022/10/24 12:10:06;;;;;;;8.57;2.35;;;;;;;;;;5009712;28;20077;-68
2022/10/24 12:12:55;;;;;;;8.27;2.45;;;;;;;;;;4978825;28;20047;-67
2022/10/24 12:15:21;;;;;;;10.00;2.47;;;;;;;;;;4997130;28;20147;-70
2022/10/24 12:18:21;;;;;;;8.35;2.20;;;;;;;;;;5008651;28;20054;-70
2022/10/24 12:20:51;;;;;;;9.75;2.03;;;;;;;;;;5001214;28;20145;-69
2022/10/24 12:23:22;;;;;;;14.68;8.27;;;;;;;;;;5006760;28;20262;-70
2022/10/24 12:26:20;;;;;;;13.95;6.38;;;;;;;;;;5008926;28;20038;-74
2022/10/24 12:29:01;;;;;;;14.13;2.75;;;;;;;;;;5020003;28;20038;-75
2022/10/24 12:31:32;;;;;;;11.15;2.80;;;;;;;;;;4989720;28;20414;-73
2022/10/24 12:34:17;;;;;;;9.25;2.53;;;;;;;;;;5008003;28;20070;-71
2022/10/24 12:37:07;;;;;;;8.35;3.40;;;;;;;;;;4996790;28;20104;-68
2022/10/24 12:39:35;;;;;;;9.13;2.80;;;;;;;;;;5005921;28;20096;-70
2022/10/24 12:42:02;;;;;;;10.55;2.78;;;;;;;;;;5011110;28;20046;-69
2022/10/24 12:44:31;;;;;;;14.68;2.50;;;;;;;;;;5010676;28;20203;-69
2022/10/24 12:46:57;;;;;;;15.57;2.40;;;;;;;;;;5008159;28;20496;-68
2022/10/24 12:49:31;;;;;;;9.95;2.67;;;;;;;;;;5005692;28;20095;-71
2022/10/24 12:52:18;;;;;;;10.52;2.17;;;;;;;;;;5011568;28;20077;-73
2022/10/24 12:54:44;;;;;;;10.82;2.22;;;;;;;;;;5013733;28;20464;-75
2022/10/24 12:57:10;;;;;;;11.57;2.33;;;;;;;;;;5011559;28;20057;-74
2022/10/24 13:00:21;;;;;;;9.43;2.22;;;;;;;;;;5012053;28;20037;-74
2022/10/24 13:02:58;;;;;;;7.45;2.13;;;;;;;;;;4976294;28;20050;-73
2022/10/24 13:05:55;;;;;;;10.70;2.42;;;;;;;;;;5009267;28;20535;-72
2022/10/24 13:08:45;;;;;;;12.55;2.15;;;;;;;;;;5008449;28;20175;-72
2022/10/24 13:11:27;;;;;;;8.68;2.58;;;;;;;;;;5005958;28;20058;-75
2022/10/24 13:13:53;;;;;;;6.95;2.40;;;;;;;;;;5008979;28;20081;-72
2022/10/24 13:16:23;;;;;;;8.77;2.53;;;;;;;;;;5004818;28;20062;-71
2022/10/24 13:19:00;;;;;;;8.63;2.70;;;;;;;;;;5002285;28;20065;-69
2022/10/24 13:21:34;;;;;;;12.75;2.63;;;;;;;;;;5009301;28;20141;-69
2022/10/24 13:24:20;;;;;;;10.45;2.00;;;;;;;;;;5006383;28;20524;-70
2022/10/24 13:26:47;;;;;;;11.55;2.28;;;;;;;;;;4988258;28;20097;-73
2022/10/24 13:29:34;;;;;;;9.10;2.28;;;;;;;;;;5008343;28;20048;-68
2022/10/24 13:32:03;;;;;;;10.48;2.47;;;;;;;;;;4972376;28;20279;-70
2022/10/24 13:34:53;;;;;;;10.75;2.30;;;;;;;;;;4972270;28;20050;-68
2022/10/24 13:37:22;;;;;;;11.82;2.63;;;;;;;;;;4989393;28;20094;-70
2022/10/24 13:39:54;;;;;;;12.05;2.22;;;;;;;;;;4989815;28;20057;-71
2022/10/24 13:42:29;;;;;;;14.07;2.80;;;;;;;;;;4978573;28;20106;-69
2022/10/24 13:45:01;;;;;;;14.98;2.50;;;;;;;;;;4981156;28;20092;-72
2022/10/24 13:47:41;;;;;;;16.83;2.78;;;;;;;;;;4984935;28;20125;-71
2022/10/24 13:50:27;;;;;;;12.40;2.60;;;;;;;;;;4986611;28;20046;-71
2022/10/24 13:52:58;;;;;;;8.88;2.45;;;;;;;;;;4987355;28;20096;-68
2022/10/24 13:55:37;;;;;;;16.55;3.00;;;;;;;;;;4984002;28;20492;-68
2022/10/24 13:58:17;;;;;;;15.10;3.60;;;;;;;;;;4968497;28;20069;-70
2022/10/24 14:00:56;;;;;;;18.20;3.05;;;;;;;;;;4984682;28;20053;-73
2022/10/24 14:03:25;;;;;;;13.32;3.63;;;;;;;;;;4986381;28;20050;-69
2022/10/24 14:05:54;;;;;;;9.18;2.92;;;;;;;;;;4987671;28;20361;-70
2022/10/24 14:08:25;;;;;;;16.02;3.10;;;;;;;;;;4987617;28;20053;-70
2022/10/24 14:10:52;;;;;;;14.52;3.47;;;;;;;;;;4985995;28;20200;-69
2022/10/24 14:13:20;;;;;;;13.20;3.28;;;;;;;;;;4987409;28;20053;-70
2022/10/24 14:15:49;;;;;;;17.02;3.90;;;;;;;;;;4980647;28;20046;-71
2022/10/24 14:18:15;;;;;;;11.10;3.05;;;;;;;;;;4985622;28;20557;-69
2022/10/24 14:20:42;;;;;;;13.57;3.55;;;;;;;;;;4984743;28;20144;-71
2022/10/24 14:23:22;;;;;;;13.55;2.92;;;;;;;;;;4987231;28;20090;-70
2022/10/24 14:25:55;;;;;;;10.40;3.30;;;;;;;;;;4988743;28;20531;-70
2022/10/24 14:28:29;;;;;;;12.13;3.15;;;;;;;;;;4970169;28;20392;-70
2022/10/24 14:30:59;;;;;;;13.50;2.80;;;;;;;;;;4987076;28;20534;-70
2022/10/24 14:33:30;;;;;;;9.70;2.85;;;;;;;;;;5000896;28;20053;-71
2022/10/24 14:35:59;;;;;;;9.77;2.70;;;;;;;;;;5010557;28;20129;-69
2022/10/24 14:38:27;;;;;;;11.60;2.47;;;;;;;;;;5011401;28;20061;-71
2022/10/24 14:40:54;;;;;;;20.42;2.90;;;;;;;;;;5011981;28;20049;-68
2022/10/24 14:43:24;;;;;;;14.95;3.20;;;;;;;;;;5012275;28;20503;-70
2022/10/24 14:46:02;;;;;;;13.63;2.67;;;;;;;;;;5012887;28;20140;-70
2022/10/24 14:48:29;;;;;;;16.20;3.10;;;;;;;;;;5004204;28;20052;-70
2022/10/24 14:51:08;;;;;;;10.90;2.30;;;;;;;;;;5012765;28;20302;-71
2022/10/24 14:53:36;;;;;;;12.15;2.42;;;;;;;;;;5009643;28;20125;-70
2022/10/24 14:56:06;;;;;;;10.90;2.72;;;;;;;;;;5010513;28;20084;-70
2022/10/24 14:58:34;;;;;;;13.55;2.70;;;;;;;;;;5006683;28;20132;-70
2022/10/24 15:01:01;;;;;;;12.85;2.60;;;;;;;;;;5003003;28;20128;-70